Time;durP1;ratioP1;P1;durP2;ratioP2;P2;SDS_P1;SDS_P2;PMS_P1;PMS_P2;Temp;Humidity;BMP_temperature;BMP_pressure;BME280_temperature;BME280_humidity;BME280_pressure;Samples;Min_cycle;Max_cycle;Signal;HPM_P1;HPM_P2
2022/06/22 00:01:27;;;;;;;2.17;1.30;;;;;;;23.89;47.02;100548.42;1533932;92;21072;-50
2022/06/22 00:03:57;;;;;;;2.35;1.20;;;;;;;23.92;46.39;100545.54;1562701;91;21577;-55
2022/06/22 00:06:40;;;;;;;2.00;1.52;;;;;;;23.97;46.03;100548.66;1564461;91;21072;-51
2022/06/22 00:09:09;;;;;;;2.12;1.32;;;;;;;24.01;45.54;100550.09;1516647;94;21105;-49
2022/06/22 00:11:36;;;;;;;2.17;1.42;;;;;;;24.06;45.19;100545.30;1509077;94;21101;-51
2022/06/22 00:14:03;;;;;;;1.52;1.32;;;;;;;24.06;45.19;100545.30;1504617;95;21073;-53
2022/06/22 00:16:33;;;;;;;2.50;1.60;;;;;;;24.07;44.95;100544.31;1512019;94;21613;-55
2022/06/22 00:19:00;;;;;;;1.60;1.50;;;;;;;24.07;44.99;100542.98;1512081;94;21061;-51
2022/06/22 00:21:40;;;;;;;1.65;1.55;;;;;;;24.07;45.04;100546.98;1489567;96;21089;-51
2022/06/22 00:24:30;;;;;;;3.05;1.47;;;;;;;24.07;45.35;100550.96;1489830;96;21124;-51
2022/06/22 00:27:19;;;;;;;1.15;1.10;;;;;;;24.06;44.92;100555.08;1487803;96;21145;-53
2022/06/22 00:29:46;;;;;;;4.78;1.27;;;;;;;24.01;43.60;100555.41;1489956;96;21081;-50
2022/06/22 00:32:26;;;;;;;1.75;1.00;;;;;;;23.92;40.58;100546.02;1489893;96;21592;-52
2022/06/22 00:34:52;;;;;;;4.62;1.45;;;;;;;23.84;39.83;100545.31;1487650;95;21137;-50
2022/06/22 00:37:31;;;;;;;2.08;1.40;;;;;;;23.79;39.99;100552.79;1489460;96;21136;-48
2022/06/22 00:40:03;;;;;;;4.75;1.67;;;;;;;23.76;40.33;100558.33;1481107;96;21193;-54
2022/06/22 00:42:42;;;;;;;4.83;1.22;;;;;;;23.74;39.96;100554.95;1554612;89;21037;-49
2022/06/22 00:45:14;;;;;;;3.55;1.50;;;;;;;23.71;39.50;100553.03;1661817;85;21483;-52
2022/06/22 00:47:47;;;;;;;2.77;1.27;;;;;;;23.67;39.01;100563.06;1658769;85;21050;-49
2022/06/22 00:50:22;;;;;;;3.10;1.40;;;;;;;23.65;38.71;100566.32;1662142;85;20978;-52
2022/06/22 00:52:54;;;;;;;4.92;1.70;;;;;;;23.60;38.91;100559.19;1601690;88;21121;-51
2022/06/22 00:55:30;;;;;;;2.15;1.10;;;;;;;23.57;38.38;100562.09;1579142;91;21123;-50
2022/06/22 00:58:14;;;;;;;3.20;1.50;;;;;;;23.57;38.83;100563.42;1620816;88;21109;-50
2022/06/22 01:00:45;;;;;;;1.40;1.00;;;;;;;23.56;38.62;100559.54;1577139;91;21134;-50
2022/06/22 01:03:34;;;;;;;1.52;0.90;;;;;;;23.53;38.28;100554.02;1576183;91;21127;-51
2022/06/22 01:06:06;;;;;;;1.87;1.20;;;;;;;23.52;38.18;100552.30;1590188;89;21084;-51
2022/06/22 01:08:52;;;;;;;4.67;1.00;;;;;;;23.51;37.88;100536.50;1650774;86;21117;-50
2022/06/22 01:14:40;;;;;;;4.90;1.20;;;;;;;23.44;37.97;100534.80;1572868;90;21092;-53
2022/06/22 01:17:09;;;;;;;2.62;1.02;;;;;;;23.42;38.14;100532.75;1547532;92;21116;-50
2022/06/22 01:20:13;;;;;;;2.12;1.30;;;;;;;23.37;38.00;100530.92;1515946;94;21126;-49
2022/06/22 01:22:46;;;;;;;3.40;1.20;;;;;;;;;;1511495;94;21521;-48
2022/06/22 01:25:58;;;;;;;2.62;1.15;;;;;;;23.31;37.54;100520.75;1537383;93;21139;-53
2022/06/22 01:28:25;;;;;;;3.15;1.30;;;;;;;23.26;37.83;100516.30;1535766;93;21083;-51
2022/06/22 01:30:55;;;;;;;2.45;1.27;;;;;;;23.23;37.97;100509.41;1536171;93;21638;-57
2022/06/22 01:33:33;;;;;;;4.33;1.20;;;;;;;23.22;38.04;100516.17;1536612;93;21706;-50
2022/06/22 01:36:04;;;;;;;1.72;1.37;;;;;;;23.18;37.79;100498.80;1527206;93;21043;-50
2022/06/22 01:38:31;;;;;;;1.67;1.22;;;;;;;23.17;38.18;100507.23;1509982;94;21208;-54
2022/06/22 01:41:04;;;;;;;1.20;1.07;;;;;;;23.15;38.18;100506.98;1508915;94;21851;-53
2022/06/22 01:43:40;;;;;;;5.08;1.30;;;;;;;23.13;38.96;100510.23;1510665;94;21575;-51
2022/06/22 01:46:12;;;;;;;2.90;1.17;;;;;;;23.11;38.83;100509.03;1513285;94;21103;-49
2022/06/22 01:48:50;;;;;;;3.05;1.30;;;;;;;23.13;39.02;100515.55;1511430;94;21126;-51
2022/06/22 01:51:29;;;;;;;2.70;1.10;;;;;;;23.11;38.37;100514.81;1483416;96;21610;-52
2022/06/22 01:54:07;;;;;;;4.03;1.27;;;;;;;23.08;37.68;100516.40;1505905;94;21097;-49
2022/06/22 01:56:46;;;;;;;1.62;1.32;;;;;;;23.07;37.52;100516.02;1548802;92;21095;-51
2022/06/22 01:59:45;;;;;;;1.70;1.30;;;;;;;23.04;37.81;100522.40;1498920;95;21139;-53
2022/06/22 02:02:19;;;;;;;1.42;1.30;;;;;;;23.03;38.54;100522.05;1529209;93;21030;-49
2022/06/22 02:04:57;;;;;;;1.75;1.50;;;;;;;23.03;39.15;100514.56;1544460;92;21108;-50
2022/06/22 02:07:48;;;;;;;2.50;1.40;;;;;;;23.03;39.13;100519.88;1546304;92;21041;-52
2022/06/22 02:10:44;;;;;;;2.80;1.10;;;;;;;23.03;39.09;100518.55;1482592;95;21106;-53
2022/06/22 02:13:34;;;;;;;2.45;1.32;;;;;;;23.00;38.30;100510.84;1511557;94;21068;-51
2022/06/22 02:16:24;;;;;;;1.10;1.00;;;;;;;23.00;38.00;100521.45;1519902;94;21129;-49
2022/06/22 02:19:01;;;;;;;3.00;1.20;;;;;;;22.97;35.42;100515.89;1518707;94;21561;-49
2022/06/22 02:21:53;;;;;;;2.75;1.00;;;;;;;22.94;36.16;100516.59;1518848;94;21142;-51
2022/06/22 02:24:28;;;;;;;;;;;;;;;22.94;36.07;100521.89;1510603;95;21126;-50
2022/06/22 02:27:07;;;;;;;1.17;0.80;;;;;;;22.92;35.36;100527.80;1508630;95;20149;-51
2022/06/22 02:29:42;;;;;;;2.25;0.95;;;;;;;22.91;35.99;100535.41;1508546;95;21177;-51
2022/06/22 02:32:12;;;;;;;1.67;1.07;;;;;;;22.90;36.62;100528.39;1508556;95;21073;-51
2022/06/22 02:34:42;;;;;;;;;;;;;;;22.89;37.29;100543.97;1511510;95;21155;-49
2022/06/22 02:37:09;;;;;;;1.52;1.22;;;;;;;22.89;37.82;100538.66;1510189;94;20115;-50
2022/06/22 02:39:46;;;;;;;5.55;1.20;;;;;;;22.87;38.26;100541.44;1511110;94;21162;-49
2022/06/22 02:44:58;;;;;;;2.05;1.05;;;;;;;22.86;38.95;100545.52;1495492;94;21092;-52
2022/06/22 02:47:31;;;;;;;1.60;1.00;;;;;;;22.85;38.73;100546.48;1537877;90;21143;-50
2022/06/22 02:50:19;;;;;;;2.98;1.10;;;;;;;22.87;38.38;100558.69;1559699;91;21086;-51
2022/06/22 02:52:49;;;;;;;1.92;0.80;;;;;;;22.84;37.62;100564.68;1581114;90;21094;-49
2022/06/22 02:55:18;;;;;;;1.93;0.90;;;;;;;22.83;37.14;100562.53;1581314;90;21042;-50
2022/06/22 02:57:56;;;;;;;2.70;0.88;;;;;;;22.80;37.30;100578.66;1537974;92;21550;-51
2022/06/22 03:00:30;;;;;;;1.42;0.90;;;;;;;22.77;37.44;100582.03;1540364;88;21093;-52
2022/06/22 03:03:07;;;;;;;2.22;0.72;;;;;;;22.75;37.77;100585.28;1651410;84;21105;-50
2022/06/22 03:05:34;;;;;;;2.77;0.90;;;;;;;22.73;37.33;100588.53;1698222;84;21106;-51
2022/06/22 03:08:01;;;;;;;1.60;0.80;;;;;;;22.73;37.14;100591.19;1692203;84;21539;-50
2022/06/22 03:10:49;;;;;;;2.67;0.88;;;;;;;22.73;37.21;100592.01;1696849;84;21087;-51
2022/06/22 03:13:25;;;;;;;1.20;0.70;;;;;;;22.72;36.79;100593.45;1693781;84;21019;-50
2022/06/22 03:15:52;;;;;;;0.98;0.60;;;;;;;22.73;36.49;100591.19;1694130;84;21027;-49
2022/06/22 03:18:24;;;;;;;0.70;0.70;;;;;;;22.71;36.32;100595.25;1682792;84;21554;-51
2022/06/22 03:21:02;;;;;;;2.15;1.02;;;;;;;22.70;36.21;100592.25;1697160;84;21075;-49
2022/06/22 03:24:04;;;;;;;1.37;0.90;;;;;;;22.71;36.61;100574.54;1690787;84;21598;-51
2022/06/22 03:26:38;;;;;;;1.07;0.80;;;;;;;22.73;36.35;100574.77;1692900;84;21019;-50
2022/06/22 03:29:20;;;;;;;2.00;0.80;;;;;;;22.76;36.18;100560.44;1669597;84;20983;-52
2022/06/22 03:31:51;;;;;;;2.00;0.80;;;;;;;22.77;36.02;100554.19;1689325;84;20999;-53
2022/06/22 03:34:22;;;;;;;0.65;0.60;;;;;;;22.77;36.19;100555.51;1678412;85;21120;-53
2022/06/22 03:36:57;;;;;;;1.05;0.88;;;;;;;22.80;36.30;100548.63;1678700;85;21054;-51
2022/06/22 03:39:28;;;;;;;1.32;0.80;;;;;;;22.85;36.06;100555.78;1645312;85;21053;-51
2022/06/22 03:42:02;;;;;;;2.52;0.90;;;;;;;22.94;36.01;100558.56;1649694;85;21127;-49
2022/06/22 03:44:37;;;;;;;2.70;0.80;;;;;;;23.08;35.93;100562.84;1635970;87;21049;-50
2022/06/22 03:47:11;;;;;;;4.05;0.60;;;;;;;23.40;35.63;100563.89;1616812;88;21114;-53
2022/06/22 03:49:47;;;;;;;3.22;0.68;;;;;;;23.90;34.92;100554.12;1619393;88;21057;-52
2022/06/22 03:52:34;;;;;;;6.12;0.80;;;;;;;24.64;33.80;100561.80;1510741;95;21084;-52
2022/06/22 03:55:11;;;;;;;2.90;0.62;;;;;;;25.49;32.46;100557.59;1501382;94;21115;-50
2022/06/22 03:57:40;;;;;;;3.22;0.80;;;;;;;26.42;31.09;100544.88;1507883;94;21103;-52
2022/06/22 04:00:09;;;;;;;1.67;0.93;;;;;;;27.26;30.19;100550.81;1507859;94;21124;-51
2022/06/22 04:02:38;;;;;;;0.90;0.80;;;;;;;27.86;28.85;100546.81;1507863;95;21121;-51
2022/06/22 04:05:06;;;;;;;2.33;1.20;;;;;;;28.19;28.20;100560.44;1507616;94;21133;-53
2022/06/22 04:07:37;;;;;;;2.52;0.70;;;;;;;28.20;27.91;100551.92;1505650;94;21629;-52
2022/06/22 04:10:05;;;;;;;1.37;0.60;;;;;;;28.03;28.02;100551.38;1507313;94;21097;-52
2022/06/22 04:12:36;;;;;;;2.02;0.75;;;;;;;27.80;28.23;100556.25;1507753;94;21117;-53
2022/06/22 04:15:26;;;;;;;2.37;1.00;;;;;;;27.70;28.52;100570.68;1508042;95;21081;-53
2022/06/22 04:18:02;;;;;;;1.05;0.70;;;;;;;27.76;28.28;100580.78;1485847;95;21110;-49
2022/06/22 04:20:52;;;;;;;3.75;0.80;;;;;;;27.77;27.95;100577.95;1458486;98;21188;-51
2022/06/22 04:23:41;;;;;;;1.00;0.72;;;;;;;27.63;28.03;100570.91;1455515;98;21089;-53
2022/06/22 04:26:22;;;;;;;3.92;0.90;;;;;;;27.41;28.31;100576.09;1441304;98;21154;-53
2022/06/22 04:28:57;;;;;;;4.28;0.90;;;;;;;27.12;28.29;100570.78;1441064;99;21668;-52
2022/06/22 04:31:36;;;;;;;2.62;0.62;;;;;;;26.80;28.62;100574.27;1447749;98;21603;-51
2022/06/22 04:34:12;;;;;;;4.30;0.80;;;;;;;26.47;29.19;100567.97;1470332;96;21088;-51
2022/06/22 04:36:46;;;;;;;3.02;0.80;;;;;;;26.15;29.69;100563.36;1413850;99;21337;-52
2022/06/22 04:39:23;;;;;;;5.15;1.30;;;;;;;25.90;29.61;100559.34;1392925;102;21694;-53
2022/06/22 04:41:50;;;;;;;3.72;0.70;;;;;;;25.66;29.70;100586.30;1402072;102;21106;-50
2022/06/22 04:44:20;;;;;;;3.10;0.65;;;;;;;25.44;29.99;100565.64;1401628;102;21112;-49
2022/06/22 04:46:50;;;;;;;2.15;0.70;;;;;;;25.28;30.38;100568.77;1405212;101;21109;-51
2022/06/22 04:49:39;;;;;;;3.08;0.90;;;;;;;25.14;30.71;100565.11;1448882;97;21188;-49
2022/06/22 04:52:12;;;;;;;0.60;0.60;;;;;;;25.04;31.12;100570.34;1478253;97;21085;-50
2022/06/22 04:54:40;;;;;;;4.00;0.70;;;;;;;25.04;31.12;100570.34;1504662;94;21149;-51
2022/06/22 04:57:18;;;;;;;0.60;0.60;;;;;;;25.04;31.21;100574.81;1509675;95;21147;-50
2022/06/22 04:59:45;;;;;;;2.42;1.00;;;;;;;25.02;31.40;100586.08;1490039;96;21072;-51
2022/06/22 05:02:13;;;;;;;1.87;0.70;;;;;;;25.01;31.37;100576.42;1505887;94;21068;-50
2022/06/22 05:04:43;;;;;;;1.57;0.75;;;;;;;25.01;31.57;100576.42;1498244;95;21096;-53
2022/06/22 05:07:28;;;;;;;2.67;0.72;;;;;;;25.02;31.35;100565.64;1477568;96;21130;-50
2022/06/22 05:10:28;;;;;;;4.55;0.90;;;;;;;25.06;31.10;100558.22;1494363;95;21122;-53
2022/06/22 05:13:04;;;;;;;2.35;0.70;;;;;;;25.17;30.63;100555.50;1490295;95;21100;-53
2022/06/22 05:15:35;;;;;;;3.08;0.80;;;;;;;25.17;30.63;100555.50;1458472;97;21081;-52
2022/06/22 05:18:06;;;;;;;1.40;0.50;;;;;;;25.28;31.23;100550.12;1458654;98;21603;-52
2022/06/22 05:20:41;;;;;;;1.20;0.57;;;;;;;25.49;31.27;100554.94;1450105;98;21547;-51
2022/06/22 05:23:08;;;;;;;1.92;0.70;;;;;;;25.73;30.16;100546.16;1453919;98;21122;-52
2022/06/22 05:25:36;;;;;;;4.30;0.70;;;;;;;26.00;29.79;100552.69;1447728;98;21096;-51
2022/06/22 05:28:16;;;;;;;2.17;0.72;;;;;;;26.21;29.80;100556.15;1461617;98;21089;-54
2022/06/22 05:30:48;;;;;;;1.27;0.57;;;;;;;26.39;29.39;100559.82;1463495;98;21633;-51
2022/06/22 05:33:18;;;;;;;3.62;0.80;;;;;;;26.51;28.77;100554.70;1480944;94;21635;-54
2022/06/22 05:35:48;;;;;;;2.55;0.57;;;;;;;26.62;28.51;100557.24;1552203;91;21535;-52
2022/06/22 05:38:16;;;;;;;2.72;0.82;;;;;;;26.74;28.61;100556.63;1564267;91;21552;-53
2022/06/22 05:40:43;;;;;;;1.37;0.53;;;;;;;26.84;27.99;100555.65;1566189;91;21080;-55
2022/06/22 05:43:09;;;;;;;3.90;0.95;;;;;;;26.88;27.76;100562.39;1565407;91;21067;-52
2022/06/22 05:45:42;;;;;;;3.85;0.62;;;;;;;26.89;27.99;100553.41;1567508;91;21101;-51
2022/06/22 05:48:16;;;;;;;1.25;0.60;;;;;;;26.91;27.91;100544.77;1501641;95;21079;-52
2022/06/22 05:50:59;;;;;;;1.02;0.90;;;;;;;26.95;28.06;100555.99;1501898;95;21586;-53
2022/06/22 05:53:46;;;;;;;2.62;0.70;;;;;;;27.03;27.60;100556.97;1500098;95;21142;-53
2022/06/22 05:56:21;;;;;;;3.22;0.80;;;;;;;27.12;27.53;100547.27;1520095;93;21051;-52
2022/06/22 05:59:06;;;;;;;1.22;0.50;;;;;;;27.24;27.22;100548.26;1546364;92;21087;-53
2022/06/22 06:01:43;;;;;;;0.82;0.60;;;;;;;27.32;27.17;100540.39;1546444;92;21113;-56
2022/06/22 06:04:36;;;;;;;3.22;0.98;;;;;;;27.45;26.95;100535.25;1545105;92;21103;-53
2022/06/22 06:07:32;;;;;;;1.57;0.70;;;;;;;27.67;26.68;100538.87;1546632;92;21160;-51
2022/06/22 06:10:00;;;;;;;2.30;0.60;;;;;;;27.83;26.52;100539.08;1550520;92;21135;-51
2022/06/22 06:12:37;;;;;;;3.08;0.98;;;;;;;27.98;26.29;100544.31;1597285;88;21037;-51
2022/06/22 06:15:05;;;;;;;3.58;0.60;;;;;;;28.08;26.00;100546.44;1616120;88;21054;-52
2022/06/22 06:17:46;;;;;;;0.80;0.62;;;;;;;28.15;25.63;100539.51;1624448;88;21570;-50
2022/06/22 06:20:21;;;;;;;6.33;1.00;;;;;;;28.16;25.84;100544.70;1591529;90;21050;-52
2022/06/22 06:22:50;;;;;;;1.00;0.60;;;;;;;28.30;26.32;100540.65;1555054;91;21110;-52
2022/06/22 06:28:14;;;;;;;3.33;0.68;;;;;;;28.74;25.49;100546.97;1598529;88;21134;-53
2022/06/22 06:30:47;;;;;;;3.58;0.70;;;;;;;28.98;24.70;100546.66;1597292;88;21098;-53
2022/06/22 06:33:34;;;;;;;2.72;0.93;;;;;;;29.20;24.98;100543.17;1537011;93;21072;-51
2022/06/22 06:36:23;;;;;;;1.72;0.80;;;;;;;29.43;24.32;100541.65;1520802;94;21108;-50
2022/06/22 06:39:02;;;;;;;3.00;0.70;;;;;;;29.54;23.79;100533.31;1511089;94;21180;-49
2022/06/22 06:41:44;;;;;;;5.00;0.80;;;;;;;29.47;23.82;100529.61;1506166;94;21058;-50
2022/06/22 06:44:20;;;;;;;7.47;0.70;;;;;;;29.27;23.75;100525.45;1505705;95;21615;-51
2022/06/22 06:46:57;;;;;;;2.47;1.00;;;;;;;29.01;23.89;100529.94;1499014;95;21107;-49
2022/06/22 06:49:40;;;;;;;3.33;0.60;;;;;;;28.79;23.77;100530.77;1502438;95;21098;-50
2022/06/22 06:52:39;;;;;;;2.67;0.90;;;;;;;28.68;23.80;100521.66;1474596;97;21141;-52
2022/06/22 06:55:12;;;;;;;3.52;1.07;;;;;;;28.58;23.62;100512.88;1475055;97;21164;-52
2022/06/22 06:57:38;;;;;;;6.35;0.93;;;;;;;28.42;23.29;100510.51;1473491;97;21655;-50
2022/06/22 07:00:06;;;;;;;1.17;0.80;;;;;;;28.28;23.37;100510.53;1475019;97;21150;-49
2022/06/22 07:02:38;;;;;;;2.08;0.80;;;;;;;28.24;23.65;100516.33;1452862;97;21121;-50
2022/06/22 07:05:09;;;;;;;4.17;0.53;;;;;;;28.24;24.33;100513.16;1475295;97;21134;-51
2022/06/22 07:07:42;;;;;;;1.75;0.70;;;;;;;28.28;24.08;100507.00;1466791;97;21093;-48
2022/06/22 07:10:27;;;;;;;2.12;1.20;;;;;;;28.28;23.89;100497.14;1509774;94;21078;-48
2022/06/22 07:13:00;;;;;;;2.15;0.90;;;;;;;28.27;23.81;100502.17;1469312;97;21228;-52
2022/06/22 07:15:40;;;;;;;2.20;0.70;;;;;;;28.26;23.97;100493.78;1468473;96;21137;-49
2022/06/22 07:18:21;;;;;;;1.72;0.90;;;;;;;28.25;23.75;100504.16;1468745;96;21084;-51
2022/06/22 07:20:50;;;;;;;;;;;;;;;28.26;23.42;100504.48;1553167;91;21073;-52
2022/06/22 07:23:22;;;;;;;5.78;0.75;;;;;;;28.33;23.52;100496.70;1537008;92;20110;-48
2022/06/22 07:25:56;;;;;;;3.30;0.88;;;;;;;28.32;23.56;100485.14;1547254;91;21076;-49
2022/06/22 07:28:34;;;;;;;5.37;0.72;;;;;;;28.29;24.24;100501.52;1555672;91;21049;-51
2022/06/22 07:31:13;;;;;;;6.25;1.35;;;;;;;28.37;23.70;100491.37;1582855;88;21615;-49
2022/06/22 07:33:48;;;;;;;2.55;0.68;;;;;;;28.47;23.67;100483.63;1599611;88;21038;-49
2022/06/22 07:36:20;;;;;;;1.42;1.15;;;;;;;28.53;23.67;100482.16;1574676;90;21107;-52
2022/06/22 07:39:12;;;;;;;1.75;0.60;;;;;;;28.56;23.76;100484.08;1576509;90;21080;-49
2022/06/22 07:41:39;;;;;;;2.30;0.55;;;;;;;28.61;23.95;100481.76;1570964;90;21510;-52
2022/06/22 07:44:19;;;;;;;3.15;0.95;;;;;;;28.69;23.64;100480.48;1572801;90;21125;-52
2022/06/22 07:47:06;;;;;;;4.05;0.80;;;;;;;28.71;23.33;100482.50;1635724;86;21075;-52
2022/06/22 07:50:08;;;;;;;7.40;0.90;;;;;;;28.64;23.19;100510.91;1650766;86;21107;-48
2022/06/22 07:52:43;;;;;;;2.75;0.65;;;;;;;28.53;23.29;100504.41;1657318;86;21529;-49
2022/06/22 07:55:53;;;;;;;4.08;0.60;;;;;;;28.47;23.35;100493.48;1658526;86;21524;-51
2022/06/22 07:58:45;;;;;;;4.42;0.80;;;;;;;28.36;24.04;100494.55;1643031;86;21072;-56
2022/06/22 08:01:16;;;;;;;1.55;0.60;;;;;;;28.29;24.11;100498.84;1655382;86;21056;-49
2022/06/22 08:04:02;;;;;;;4.07;0.73;;;;;;;28.25;24.31;100504.65;1659313;86;21028;-49
2022/06/22 08:06:36;;;;;;;5.65;1.00;;;;;;;28.22;24.14;100500.44;1656274;86;20980;-50
2022/06/22 08:09:08;;;;;;;2.12;0.70;;;;;;;28.14;24.29;100503.03;1614229;86;21057;-51
2022/06/22 08:11:46;;;;;;;2.85;0.65;;;;;;;28.10;24.22;100498.98;1654338;86;21068;-51
2022/06/22 08:14:30;;;;;;;9.28;0.80;;;;;;;28.05;24.26;100505.27;1551100;92;21075;-53
2022/06/22 08:16:59;;;;;;;1.12;0.40;;;;;;;27.95;24.19;100503.96;1533706;93;21128;-49
2022/06/22 08:19:28;;;;;;;1.45;0.50;;;;;;;27.90;24.54;100494.20;1533059;93;21093;-53
2022/06/22 08:22:01;;;;;;;2.50;0.88;;;;;;;27.89;25.41;100489.00;1531011;93;21102;-52
2022/06/22 08:24:29;;;;;;;5.28;0.90;;;;;;;27.84;24.83;100500.66;1510701;93;21181;-50
2022/06/22 08:26:56;;;;;;;3.20;0.70;;;;;;;27.75;25.16;100494.86;1509949;94;21097;-50
2022/06/22 08:29:23;;;;;;;5.05;0.60;;;;;;;27.69;25.65;100494.13;1510732;94;21090;-51
2022/06/22 08:32:14;;;;;;;5.62;0.62;;;;;;;27.66;25.48;100493.07;1511263;94;21112;-50
2022/06/22 08:34:54;;;;;;;2.63;0.73;;;;;;;27.66;25.24;100497.92;1507667;93;21104;-50
2022/06/22 08:37:28;;;;;;;2.62;0.60;;;;;;;27.64;24.72;100499.06;1501677;95;21068;-49
2022/06/22 08:40:00;;;;;;;4.08;1.45;;;;;;;27.63;24.85;100489.38;1485302;96;21187;-51
2022/06/22 08:42:38;;;;;;;1.90;0.60;;;;;;;27.64;25.18;100481.69;1485224;95;21640;-51
2022/06/22 08:45:39;;;;;;;1.25;0.60;;;;;;;27.66;25.19;100487.23;1483755;95;21087;-49
2022/06/22 08:48:31;;;;;;;1.57;0.70;;;;;;;27.68;25.08;100493.27;1486445;96;21626;-49
2022/06/22 08:51:09;;;;;;;2.08;1.07;;;;;;;27.70;25.03;100489.95;1477225;96;21165;-52
2022/06/22 08:54:05;;;;;;;2.98;0.93;;;;;;;27.71;24.82;100484.97;1473568;96;21096;-52
2022/06/22 08:56:54;;;;;;;4.00;1.02;;;;;;;27.70;25.14;100475.25;1476312;96;21102;-52
2022/06/22 09:00:04;;;;;;;2.45;1.07;;;;;;;27.73;25.20;100482.99;1473910;96;21121;-49
2022/06/22 09:02:56;;;;;;;2.50;0.93;;;;;;;27.79;25.19;100477.53;1473203;96;21120;-54
2022/06/22 09:05:54;;;;;;;;;;;;;;;27.82;24.98;100483.93;1488850;94;21081;-50
2022/06/22 09:09:13;;;;;;;5.78;0.95;;;;;;;27.84;25.03;100465.91;1507430;94;20109;-51
2022/06/22 09:12:12;;;;;;;2.05;0.55;;;;;;;27.83;25.05;100466.88;1545466;88;21074;-54
2022/06/22 09:15:27;;;;;;;1.10;0.55;;;;;;;27.84;25.14;100457.88;1616317;88;21590;-52
2022/06/22 09:18:11;;;;;;;5.15;0.82;;;;;;;27.87;25.23;100449.54;1579097;91;21142;-55
2022/06/22 09:21:19;;;;;;;4.85;1.07;;;;;;;27.89;25.34;100451.57;1599928;89;21054;-53
2022/06/22 09:24:21;;;;;;;5.42;0.90;;;;;;;27.91;25.30;100458.94;1601671;89;21085;-52
2022/06/22 09:27:14;;;;;;;2.15;0.78;;;;;;;27.90;25.34;100454.61;1598994;89;21069;-51
2022/06/22 09:29:55;;;;;;;3.92;0.60;;;;;;;27.89;25.37;100443.06;1638421;86;21041;-54
2022/06/22 09:33:18;;;;;;;2.45;0.80;;;;;;;27.94;24.86;100453.30;1630370;86;21040;-53
2022/06/22 09:36:13;;;;;;;7.20;3.15;;;;;;;27.93;24.60;100458.30;1632570;86;21532;-50
2022/06/22 09:39:04;;;;;;;10.80;2.00;;;;;;;27.83;24.31;100469.55;1653427;84;21062;-51
2022/06/22 09:41:53;;;;;;;2.85;1.42;;;;;;;27.74;23.98;100453.09;1696354;83;21041;-53
2022/06/22 09:44:49;;;;;;;5.20;0.90;;;;;;;27.62;24.48;100460.95;1699370;83;21086;-52
2022/06/22 09:47:36;;;;;;;2.95;1.10;;;;;;;27.55;25.01;100451.86;1699739;83;21702;-52
2022/06/22 09:50:34;;;;;;;1.98;0.82;;;;;;;27.59;24.89;100464.78;1699651;83;21522;-52
2022/06/22 09:53:12;;;;;;;3.40;1.20;;;;;;;27.63;24.95;100469.33;1699449;83;21030;-50
2022/06/22 09:56:22;;;;;;;1.62;0.80;;;;;;;27.66;24.86;100462.33;1698347;83;21547;-51
2022/06/22 09:59:34;;;;;;;5.55;0.70;;;;;;;27.62;24.89;100456.94;1699640;83;21045;-48
2022/06/22 10:02:30;;;;;;;8.35;2.87;;;;;;;27.61;25.17;100457.94;1695054;83;21610;-49
2022/06/22 10:05:36;;;;;;;5.95;2.00;;;;;;;27.56;25.14;100458.88;1699577;83;21083;-49
2022/06/22 10:08:17;;;;;;;5.87;1.42;;;;;;;27.54;25.69;100474.22;1699501;84;21087;-53
2022/06/22 10:11:27;;;;;;;5.12;2.17;;;;;;;27.50;25.45;100461.66;1699703;84;21052;-52
2022/06/22 10:14:25;;;;;;;3.15;0.93;;;;;;;27.47;25.56;100478.48;1661969;86;21020;-51
2022/06/22 10:17:35;;;;;;;3.92;0.50;;;;;;;27.42;25.58;100470.05;1644979;86;21051;-49
2022/06/22 10:20:46;;;;;;;4.78;0.70;;;;;;;27.36;25.76;100479.52;1607807;88;21546;-51
2022/06/22 10:23:35;;;;;;;1.55;0.50;;;;;;;27.30;26.28;100475.58;1666486;86;21058;-52
2022/06/22 10:26:19;;;;;;;2.02;0.85;;;;;;;27.23;26.33;100482.47;1621570;88;21058;-51
2022/06/22 10:29:25;;;;;;;2.30;0.60;;;;;;;27.13;26.59;100480.33;1606374;88;21121;-50
2022/06/22 10:32:40;;;;;;;3.33;0.57;;;;;;;27.08;26.87;100479.91;1575076;90;21133;-50
2022/06/22 10:35:18;;;;;;;4.15;1.60;;;;;;;27.06;26.85;100477.87;1615451;88;21050;-50
2022/06/22 10:38:03;;;;;;;4.95;2.45;;;;;;;27.06;26.90;100484.56;1613314;88;21069;-54
2022/06/22 10:47:51;;;;;;;4.20;1.72;;;;;;;27.22;27.15;100483.45;1598081;89;21088;-53
2022/06/22 10:50:46;;;;;;;2.77;0.78;;;;;;;27.27;27.11;100482.53;1603481;89;21589;-52
2022/06/22 10:53:35;;;;;;;2.55;0.45;;;;;;;27.33;26.95;100487.28;1542013;92;21084;-53
2022/06/22 10:56:13;;;;;;;1.77;0.47;;;;;;;27.38;27.13;100477.53;1606809;87;21073;-51
2022/06/22 10:58:54;;;;;;;2.47;0.80;;;;;;;27.45;27.20;100480.46;1612100;87;21053;-52
2022/06/22 11:01:52;;;;;;;2.75;0.60;;;;;;;27.50;27.16;100469.67;1611252;87;21068;-49
2022/06/22 11:04:50;;;;;;;27.32;2.27;;;;;;;27.58;27.21;100488.96;1613733;87;21072;-51
2022/06/22 11:07:32;;;;;;;3.00;1.17;;;;;;;27.64;26.91;100477.67;1667419;84;21032;-49
2022/06/22 11:10:27;;;;;;;3.22;0.62;;;;;;;27.72;26.73;100487.16;1673015;84;21051;-51
2022/06/22 11:13:27;;;;;;;5.22;0.70;;;;;;;27.76;26.82;100485.87;1622421;87;21037;-52
2022/06/22 11:16:08;;;;;;;3.85;1.30;;;;;;;27.76;27.22;100492.55;1617580;88;21089;-53
2022/06/22 11:19:00;;;;;;;3.75;1.00;;;;;;;27.75;26.78;100478.82;1574398;90;21585;-54
2022/06/22 11:21:41;;;;;;;2.77;0.70;;;;;;;27.75;26.75;100485.51;1576982;91;21022;-50
2022/06/22 11:24:44;;;;;;;2.33;0.50;;;;;;;27.70;27.00;100482.45;1588994;88;21091;-50
2022/06/22 11:33:41;;;;;;;2.92;0.70;;;;;;;27.51;27.45;100491.90;1522097;93;21121;-53
2022/06/22 11:36:41;;;;;;;6.53;0.90;;;;;;;27.47;28.10;100491.84;1521981;93;21099;-55
2022/06/22 11:39:22;;;;;;;3.45;0.88;;;;;;;27.48;27.83;100498.86;1497621;94;21577;-52
2022/06/22 11:42:42;;;;;;;5.90;1.32;;;;;;;27.51;27.34;100494.57;1494808;94;21759;-54
2022/06/22 11:48:32;;;;;;;2.92;0.70;;;;;;;27.52;27.73;100480.20;1493519;94;21117;-52
2022/06/22 11:51:20;;;;;;;7.62;0.90;;;;;;;27.50;27.58;100487.53;1508980;93;21149;-49
2022/06/22 11:54:34;;;;;;;3.10;0.50;;;;;;;27.50;27.69;100487.53;1509766;93;21625;-50
2022/06/22 11:57:42;;;;;;;2.95;0.70;;;;;;;27.48;27.74;100490.84;1452694;98;21149;-54
2022/06/22 12:00:25;;;;;;;4.37;1.30;;;;;;;27.46;28.12;100488.81;1430212;100;21659;-52
2022/06/22 12:03:07;;;;;;;12.47;2.45;;;;;;;27.44;27.78;100498.32;1431177;100;21104;-50
2022/06/22 12:06:00;;;;;;;7.30;1.60;;;;;;;27.39;27.49;100490.73;1432437;100;21121;-51
2022/06/22 12:08:39;;;;;;;3.30;1.15;;;;;;;27.36;27.29;100500.40;1396898;101;21127;-55
2022/06/22 12:11:45;;;;;;;3.90;0.62;;;;;;;27.32;27.40;100489.62;1392798;101;21126;-53
2022/06/22 12:17:36;;;;;;;3.00;0.70;;;;;;;27.22;27.56;100502.15;1432980;98;21140;-53
2022/06/22 12:20:48;;;;;;;5.20;0.60;;;;;;;27.15;27.82;100503.73;1458223;98;21126;-51
2022/06/22 12:23:33;;;;;;;4.10;1.00;;;;;;;27.08;27.91;100513.30;1427375;100;21143;-51
2022/06/22 12:26:12;;;;;;;3.42;1.60;;;;;;;26.99;27.97;100520.86;1425558;100;21652;-49
2022/06/22 12:29:26;;;;;;;6.60;1.87;;;;;;;26.93;28.19;100510.75;1443151;99;21130;-52
2022/06/22 12:32:11;;;;;;;1.92;0.75;;;;;;;26.88;28.26;100509.47;1435121;98;21109;-53
2022/06/22 12:35:06;;;;;;;4.22;0.80;;;;;;;26.89;28.87;100509.35;1473454;94;21109;-49
2022/06/22 12:37:38;;;;;;;4.72;1.20;;;;;;;26.91;28.58;100506.05;1500462;95;21133;-52
2022/06/22 12:40:34;;;;;;;9.65;1.00;;;;;;;26.93;29.40;100505.41;1500296;95;21642;-56
2022/06/22 12:43:29;;;;;;;3.35;0.70;;;;;;;26.96;29.47;100499.77;1501422;94;21125;-48
2022/06/22 12:46:00;;;;;;;1.10;0.65;;;;;;;26.94;29.30;100520.43;1565151;91;21113;-51
2022/06/22 12:48:56;;;;;;;2.45;0.60;;;;;;;26.92;29.48;100509.05;1565098;91;21108;-50
2022/06/22 12:51:33;;;;;;;2.12;0.60;;;;;;;26.91;29.32;100512.72;1562092;91;21112;-52
2022/06/22 12:54:16;;;;;;;2.95;0.80;;;;;;;26.93;29.36;100502.74;1532911;93;21636;-52
2022/06/22 12:56:50;;;;;;;3.70;0.68;;;;;;;26.94;29.60;100501.73;1523621;93;21577;-52
2022/06/22 12:59:37;;;;;;;3.83;0.60;;;;;;;26.93;29.96;100507.23;1490123;95;21109;-50
2022/06/22 13:02:12;;;;;;;2.20;0.68;;;;;;;26.91;29.72;100516.73;1486310;95;21122;-50